Time;durP1;ratioP1;P1;durP2;ratioP2;P2;SDS_P1;SDS_P2;PMS_P1;PMS_P2;Temp;Humidity;BMP_temperature;BMP_pressure;BME280_temperature;BME280_humidity;BME280_pressure;Samples;Min_cycle;Max_cycle;Signal;HPM_P1;HPM_P2
2022/03/27 00:02:05;;;;;;;33.20;19.67;;;13.80;91.40;;;;;;6337552;22;20148;-84
2022/03/27 00:04:31;;;;;;;32.07;19.20;;;13.80;91.50;;;;;;6337584;22;20206;-83
2022/03/27 00:06:57;;;;;;;31.73;19.23;;;13.70;91.70;;;;;;6339329;22;20133;-84
2022/03/27 00:09:22;;;;;;;29.53;18.47;;;13.70;91.90;;;;;;6338825;22;20605;-84
2022/03/27 00:11:48;;;;;;;30.63;19.73;;;13.80;91.90;;;;;;6337707;22;20149;-83
2022/03/27 00:14:14;;;;;;;29.20;18.20;;;13.70;92.00;;;;;;6337296;22;20148;-84
2022/03/27 00:16:39;;;;;;;28.50;17.93;;;13.70;92.10;;;;;;6337935;22;20155;-83
2022/03/27 00:19:06;;;;;;;27.57;18.13;;;13.80;92.20;;;;;;6337509;22;20222;-83
2022/03/27 00:21:32;;;;;;;30.37;19.37;;;13.70;92.50;;;;;;6337718;22;20152;-83
2022/03/27 00:23:58;;;;;;;29.47;18.10;;;13.70;92.30;;;;;;6339123;22;20248;-83
2022/03/27 00:26:24;;;;;;;29.77;18.27;;;13.70;92.40;;;;;;6337387;22;20177;-84
2022/03/27 00:28:50;;;;;;;27.90;17.83;;;13.70;92.50;;;;;;6337788;22;20153;-83
2022/03/27 00:31:17;;;;;;;28.63;18.27;;;13.60;92.70;;;;;;6338997;22;20629;-83
2022/03/27 00:33:44;;;;;;;29.63;18.40;;;13.70;92.50;;;;;;6337723;22;20152;-83
2022/03/27 00:36:13;;;;;;;29.80;18.63;;;13.60;92.70;;;;;;6337478;22;20154;-84
2022/03/27 00:38:48;;;;;;;27.70;17.33;;;13.60;92.70;;;;;;6337740;22;20160;-84
2022/03/27 00:41:15;;;;;;;26.40;16.83;;;13.60;92.90;;;;;;6336880;22;20224;-84
2022/03/27 00:43:42;;;;;;;27.40;17.50;;;13.70;92.90;;;;;;6337726;22;20210;-83
2022/03/27 00:46:08;;;;;;;28.20;18.47;;;13.70;92.80;;;;;;6338795;22;20208;-84
2022/03/27 00:48:34;;;;;;;32.63;18.53;;;13.60;93.00;;;;;;6337400;22;20194;-83
2022/03/27 00:51:00;;;;;;;32.87;18.63;;;13.40;93.30;;;;;;6337247;22;20144;-84
2022/03/27 00:53:26;;;;;;;26.83;17.70;;;13.40;93.50;;;;;;6337314;22;20185;-84
2022/03/27 00:55:51;;;;;;;25.63;17.10;;;13.30;93.60;;;;;;6336814;22;20184;-84
2022/03/27 00:58:17;;;;;;;23.97;16.97;;;13.30;94.00;;;;;;6337548;22;20149;-83
2022/03/27 01:00:55;;;;;;;25.73;17.10;;;13.30;93.90;;;;;;6338892;22;20554;-84
2022/03/27 01:03:24;;;;;;;27.47;17.63;;;13.30;93.80;;;;;;6337156;22;20182;-84
2022/03/27 01:05:52;;;;;;;26.17;16.80;;;13.20;93.90;;;;;;6338466;22;20157;-83
2022/03/27 01:09:35;;;;;;;27.23;15.03;;;13.20;94.00;;;;;;6336793;22;20231;-83
2022/03/27 01:11:14;;;;;;;26.60;15.63;;;13.20;94.10;;;;;;6338257;22;20164;-84
2022/03/27 01:13:53;;;;;;;24.93;16.40;;;13.20;94.30;;;;;;6338721;22;20156;-83
2022/03/27 01:16:30;;;;;;;25.20;16.10;;;13.10;94.50;;;;;;6337145;22;20532;-84
2022/03/27 01:19:01;;;;;;;26.63;15.63;;;13.20;94.30;;;;;;6337099;22;20145;-83
2022/03/27 01:21:27;;;;;;;24.93;15.93;;;13.10;94.30;;;;;;6337244;22;20590;-84
2022/03/27 01:23:55;;;;;;;25.37;15.90;;;13.00;94.80;;;;;;6336735;22;20172;-84
2022/03/27 01:26:22;;;;;;;26.53;16.27;;;13.10;94.60;;;;;;6337469;22;20226;-84
2022/03/27 01:28:47;;;;;;;23.60;15.27;;;13.10;94.60;;;;;;6337498;22;20234;-84
2022/03/27 01:31:13;;;;;;;22.87;14.50;;;13.00;94.80;;;;;;6337403;22;20145;-84
2022/03/27 01:33:39;;;;;;;24.33;14.50;;;12.90;95.00;;;;;;6336718;22;20566;-84
2022/03/27 01:36:04;;;;;;;19.87;14.60;;;12.90;95.00;;;;;;6337133;22;20183;-83
2022/03/27 01:38:30;;;;;;;22.83;14.87;;;13.00;95.20;;;;;;6336671;22;20156;-84
2022/03/27 01:40:56;;;;;;;24.63;15.17;;;12.90;95.20;;;;;;6336943;22;20469;-83
2022/03/27 01:43:22;;;;;;;24.43;15.50;;;12.80;95.40;;;;;;6337111;22;20625;-84
2022/03/27 01:45:48;;;;;;;22.30;14.87;;;12.90;95.30;;;;;;6336965;22;20148;-83
2022/03/27 01:48:13;;;;;;;21.37;14.27;;;12.90;95.30;;;;;;6337047;22;20604;-84
2022/03/27 01:50:39;;;;;;;26.27;15.20;;;12.90;95.30;;;;;;6337030;22;20472;-83
2022/03/27 01:53:04;;;;;;;24.03;15.43;;;12.80;95.50;;;;;;6336399;22;20161;-82
2022/03/27 01:55:30;;;;;;;22.67;14.67;;;12.70;95.70;;;;;;6337069;22;20149;-84
2022/03/27 01:57:57;;;;;;;21.73;14.50;;;12.80;95.80;;;;;;6336966;22;20576;-84
2022/03/27 02:00:22;;;;;;;20.43;13.00;;;12.90;95.80;;;;;;6336892;22;20145;-84
2022/03/27 02:02:48;;;;;;;22.13;14.37;;;12.90;95.40;;;;;;6337044;22;20173;-84
2022/03/27 02:05:13;;;;;;;20.63;14.47;;;12.80;95.70;;;;;;6336770;22;20501;-83
2022/03/27 02:07:44;;;;;;;21.83;13.57;;;12.70;96.10;;;;;;6336443;22;20191;-83
2022/03/27 02:10:10;;;;;;;22.87;14.77;;;12.60;96.20;;;;;;6336574;22;20245;-84
2022/03/27 02:12:36;;;;;;;19.60;12.97;;;12.50;96.60;;;;;;6336723;22;20146;-84
2022/03/27 02:15:05;;;;;;;20.47;13.17;;;12.40;96.80;;;;;;6336595;22;20532;-83
2022/03/27 02:17:30;;;;;;;19.13;13.17;;;12.40;96.90;;;;;;6336913;22;20145;-83
2022/03/27 02:19:56;;;;;;;17.23;11.60;;;12.40;97.00;;;;;;6336646;22;20142;-83
2022/03/27 02:22:22;;;;;;;21.57;12.83;;;12.40;97.10;;;;;;6336548;22;20183;-83
2022/03/27 02:24:48;;;;;;;21.53;12.63;;;12.40;97.20;;;;;;6336693;22;20148;-84
2022/03/27 02:27:14;;;;;;;17.07;11.93;;;12.40;97.20;;;;;;6336580;22;20482;-83
2022/03/27 02:29:39;;;;;;;18.57;12.13;;;12.30;97.50;;;;;;6336774;22;20149;-84
2022/03/27 02:32:05;;;;;;;18.53;12.57;;;12.30;97.60;;;;;;6336607;22;20480;-84
2022/03/27 02:34:31;;;;;;;17.97;13.00;;;12.30;97.30;;;;;;6336672;22;20150;-84
2022/03/27 02:36:57;;;;;;;20.90;12.63;;;12.30;97.50;;;;;;6336436;22;20184;-83
2022/03/27 02:39:22;;;;;;;20.20;12.03;;;12.40;97.20;;;;;;6336602;22;20490;-84
2022/03/27 02:41:48;;;;;;;17.37;11.97;;;12.40;97.30;;;;;;6336952;22;20186;-84
2022/03/27 02:44:14;;;;;;;20.53;12.03;;;12.30;97.50;;;;;;6336941;22;20181;-83
2022/03/27 02:46:40;;;;;;;17.27;11.50;;;12.20;97.70;;;;;;6338428;22;20558;-84
2022/03/27 02:49:06;;;;;;;17.37;11.00;;;12.20;97.80;;;;;;6338404;22;20159;-84
2022/03/27 02:51:31;;;;;;;18.33;12.20;;;12.20;98.10;;;;;;6337772;22;20167;-84
2022/03/27 02:53:57;;;;;;;18.23;11.63;;;12.20;98.10;;;;;;6338269;22;20512;-84
2022/03/27 02:56:22;;;;;;;18.37;13.50;;;12.30;97.90;;;;;;6338663;22;20155;-83
2022/03/27 02:58:48;;;;;;;19.27;11.57;;;12.50;97.50;;;;;;6338147;22;20147;-83
2022/03/27 03:01:14;;;;;;;18.30;11.60;;;12.40;97.50;;;;;;6339862;22;20136;-83
2022/03/27 03:03:42;;;;;;;19.60;12.33;;;12.30;97.80;;;;;;6338283;22;20317;-84
2022/03/27 03:06:09;;;;;;;18.03;11.23;;;12.40;97.80;;;;;;6337856;22;20169;-84
2022/03/27 03:08:40;;;;;;;17.47;11.27;;;12.30;97.90;;;;;;6338365;22;20217;-83
2022/03/27 03:11:06;;;;;;;18.27;10.90;;;12.30;97.80;;;;;;6338183;22;20160;-83
2022/03/27 03:13:32;;;;;;;18.73;11.47;;;12.10;98.40;;;;;;6338100;22;20226;-83
2022/03/27 03:15:58;;;;;;;16.33;10.90;;;12.10;98.60;;;;;;6338246;22;20153;-83
2022/03/27 03:18:25;;;;;;;17.33;11.57;;;12.10;98.40;;;;;;6338201;22;20210;-83
2022/03/27 03:20:51;;;;;;;16.57;11.87;;;12.10;98.50;;;;;;6339272;22;20206;-82
2022/03/27 03:23:17;;;;;;;20.10;11.23;;;12.00;98.70;;;;;;6337796;22;20273;-83
2022/03/27 03:25:42;;;;;;;18.10;11.00;;;12.00;99.00;;;;;;6338244;22;20169;-84
2022/03/27 03:28:09;;;;;;;15.10;10.53;;;11.90;99.20;;;;;;6338555;22;20170;-83
2022/03/27 03:30:35;;;;;;;15.13;10.97;;;11.80;99.60;;;;;;6338273;22;20148;-83
2022/03/27 03:33:00;;;;;;;16.63;10.70;;;11.60;99.90;;;;;;6338221;22;20184;-83
2022/03/27 03:35:26;;;;;;;15.67;10.67;;;11.50;99.90;;;;;;6337137;22;20155;-83
2022/03/27 03:37:51;;;;;;;16.30;10.67;;;11.40;99.90;;;;;;6336927;22;20194;-84
2022/03/27 03:40:17;;;;;;;17.10;10.77;;;11.40;99.90;;;;;;6338144;22;20487;-83
2022/03/27 03:42:43;;;;;;;17.63;11.57;;;11.40;99.90;;;;;;6337428;22;20213;-84
2022/03/27 03:45:08;;;;;;;16.30;11.47;;;11.50;99.90;;;;;;6337875;22;20608;-83
2022/03/27 03:47:34;;;;;;;20.90;11.23;;;11.60;99.90;;;;;;6337467;22;20202;-83
2022/03/27 03:49:59;;;;;;;18.27;11.20;;;11.80;99.90;;;;;;6337186;22;20155;-83
2022/03/27 03:52:26;;;;;;;20.63;11.30;;;12.00;99.90;;;;;;6337585;22;20173;-83
2022/03/27 03:54:52;;;;;;;18.60;11.93;;;11.80;99.90;;;;;;6337853;22;20149;-83
2022/03/27 03:57:18;;;;;;;18.13;11.23;;;11.80;99.90;;;;;;6337859;22;20462;-83
2022/03/27 03:59:43;;;;;;;16.80;11.27;;;11.70;99.90;;;;;;6337492;22;20197;-83
2022/03/27 04:02:13;;;;;;;15.37;10.87;;;11.80;99.90;;;;;;6336878;22;20150;-85
2022/03/27 04:04:39;;;;;;;17.67;11.90;;;11.60;99.90;;;;;;6336517;22;20177;-83
2022/03/27 04:07:05;;;;;;;17.93;10.30;;;11.40;99.90;;;;;;6336731;22;20646;-84
2022/03/27 04:09:31;;;;;;;17.93;11.53;;;11.40;99.90;;;;;;6334471;22;20176;-84
2022/03/27 04:11:57;;;;;;;19.53;11.00;;;11.20;99.90;;;;;;6334829;22;20149;-83
2022/03/27 04:14:23;;;;;;;17.57;11.33;;;11.20;99.90;;;;;;6334979;22;20583;-83
2022/03/27 04:16:49;;;;;;;16.63;10.87;;;11.20;99.90;;;;;;6334920;22;20148;-84
2022/03/27 04:19:15;;;;;;;14.67;10.10;;;11.20;99.90;;;;;;6336719;22;20516;-83
2022/03/27 04:21:41;;;;;;;18.00;10.63;;;11.40;99.90;;;;;;6337089;22;20135;-84
2022/03/27 04:24:08;;;;;;;16.87;10.57;;;11.30;99.90;;;;;;6337558;22;20403;-83
2022/03/27 04:26:34;;;;;;;17.80;10.67;;;11.40;99.90;;;;;;6339018;22;20132;-83
2022/03/27 04:29:02;;;;;;;18.00;11.30;;;11.40;99.90;;;;;;6337917;22;20151;-83
2022/03/27 04:31:29;;;;;;;16.33;10.27;;;11.50;99.90;;;;;;6337197;22;20535;-83
2022/03/27 04:33:55;;;;;;;19.73;11.10;;;11.30;99.90;;;;;;6337410;22;20145;-85
2022/03/27 04:36:20;;;;;;;18.40;11.03;;;11.20;99.90;;;;;;6337136;22;20145;-86
2022/03/27 04:38:46;;;;;;;20.20;11.43;;;11.00;99.90;;;;;;6337678;22;20166;-83
2022/03/27 04:41:12;;;;;;;17.37;11.10;;;11.00;99.90;;;;;;6337385;22;20164;-83
2022/03/27 04:43:37;;;;;;;16.57;10.53;;;10.90;99.90;;;;;;6337494;22;20239;-83
2022/03/27 04:46:03;;;;;;;16.13;10.83;;;10.80;99.90;;;;;;6336784;22;20142;-85
2022/03/27 04:48:29;;;;;;;16.60;10.40;;;10.70;99.90;;;;;;6311435;22;20576;-85
2022/03/27 04:50:55;;;;;;;18.77;11.40;;;10.70;99.90;;;;;;6337428;22;20495;-88
2022/03/27 04:53:20;;;;;;;16.07;11.33;;;10.70;99.90;;;;;;6337145;22;20234;-83
2022/03/27 04:55:46;;;;;;;19.83;11.40;;;10.70;99.90;;;;;;6337649;22;20147;-84
2022/03/27 04:58:12;;;;;;;16.73;10.93;;;10.70;99.90;;;;;;6337479;22;20143;-84
2022/03/27 05:00:38;;;;;;;18.07;10.70;;;10.60;99.90;;;;;;6336845;22;20253;-84
2022/03/27 05:03:05;;;;;;;16.37;11.23;;;10.60;99.90;;;;;;6336889;22;20188;-82
2022/03/27 05:05:30;;;;;;;14.43;10.60;;;10.60;99.90;;;;;;6337045;22;20650;-85
2022/03/27 05:07:58;;;;;;;22.23;11.00;;;10.60;99.90;;;;;;6337284;22;20186;-85
2022/03/27 05:10:24;;;;;;;19.47;10.80;;;10.70;99.90;;;;;;6338384;22;20180;-84
2022/03/27 05:12:50;;;;;;;17.20;10.47;;;10.70;99.90;;;;;;6337471;22;20230;-84
2022/03/27 05:15:15;;;;;;;19.27;11.43;;;10.70;99.90;;;;;;6336908;22;20562;-85
2022/03/27 05:17:46;;;;;;;16.03;11.10;;;10.90;99.90;;;;;;6338522;22;20133;-84
2022/03/27 05:20:12;;;;;;;17.60;10.97;;;10.80;99.90;;;;;;6338927;22;20247;-85
2022/03/27 05:22:38;;;;;;;16.43;10.90;;;10.60;99.90;;;;;;6338482;22;20165;-84
2022/03/27 05:25:05;;;;;;;19.37;11.27;;;10.60;99.90;;;;;;6338308;22;20154;-84
2022/03/27 05:27:31;;;;;;;16.60;10.73;;;10.50;99.90;;;;;;6338603;22;20601;-84
2022/03/27 05:29:57;;;;;;;18.23;11.10;;;10.50;99.90;;;;;;6338363;22;20136;-83
2022/03/27 05:32:22;;;;;;;24.80;11.50;;;10.50;99.90;;;;;;6336928;22;20451;-85
2022/03/27 05:34:48;;;;;;;18.13;11.60;;;10.50;99.90;;;;;;6338574;22;20143;-85
2022/03/27 05:37:14;;;;;;;19.43;11.13;;;10.60;99.90;;;;;;6337685;22;20186;-84
2022/03/27 05:39:39;;;;;;;17.30;11.37;;;10.80;99.90;;;;;;6336878;22;20211;-84
2022/03/27 05:42:05;;;;;;;17.40;11.87;;;10.90;99.90;;;;;;6336612;22;20230;-85
2022/03/27 05:44:31;;;;;;;20.63;11.63;;;11.00;99.90;;;;;;6336569;22;20639;-85
2022/03/27 05:46:56;;;;;;;16.57;11.63;;;11.20;99.90;;;;;;6336669;22;20234;-85
2022/03/27 05:49:22;;;;;;;20.07;11.73;;;11.30;99.90;;;;;;6336722;22;20219;-85
2022/03/27 05:51:48;;;;;;;18.43;11.70;;;11.40;99.90;;;;;;6338152;22;20158;-85
2022/03/27 05:54:13;;;;;;;19.60;11.90;;;11.60;99.90;;;;;;6337050;22;20175;-84
2022/03/27 05:56:39;;;;;;;18.17;11.97;;;11.50;99.90;;;;;;6338482;22;20146;-84
2022/03/27 05:59:05;;;;;;;17.70;11.73;;;11.70;99.90;;;;;;6337643;22;20149;-84
2022/03/27 06:01:31;;;;;;;18.70;12.10;;;11.70;99.90;;;;;;6336611;22;20154;-84
2022/03/27 06:03:57;;;;;;;19.00;12.23;;;11.70;99.90;;;;;;6336953;22;20620;-84
2022/03/27 06:06:22;;;;;;;19.47;11.83;;;11.80;99.90;;;;;;6336562;22;20174;-84
2022/03/27 06:08:48;;;;;;;19.10;12.30;;;11.70;99.90;;;;;;6335980;22;20157;-84
2022/03/27 06:11:13;;;;;;;17.43;11.33;;;11.80;99.90;;;;;;6337925;22;20166;-86
2022/03/27 06:13:39;;;;;;;17.27;11.60;;;11.70;99.90;;;;;;6338071;22;20155;-86
2022/03/27 06:16:05;;;;;;;18.37;11.60;;;11.70;99.90;;;;;;6337170;22;20442;-86
2022/03/27 06:18:30;;;;;;;19.00;11.87;;;11.80;99.90;;;;;;6338597;22;20139;-86
2022/03/27 06:20:56;;;;;;;18.90;13.13;;;11.90;99.90;;;;;;6338795;22;20587;-86
2022/03/27 06:23:22;;;;;;;23.13;13.23;;;12.00;99.90;;;;;;6339276;22;20258;-85
2022/03/27 06:25:49;;;;;;;21.80;13.83;;;12.10;99.90;;;;;;6338704;22;20163;-85
2022/03/27 06:28:15;;;;;;;23.27;14.43;;;12.10;99.90;;;;;;6338776;22;20600;-86
2022/03/27 06:30:41;;;;;;;25.10;14.97;;;12.10;99.90;;;;;;6339048;22;20144;-85
2022/03/27 06:33:06;;;;;;;26.80;15.40;;;12.20;99.90;;;;;;6339382;22;20598;-86
2022/03/27 06:35:32;;;;;;;23.03;14.20;;;12.20;99.90;;;;;;6337979;22;20153;-86
2022/03/27 06:37:58;;;;;;;27.90;15.20;;;12.10;99.90;;;;;;6337072;22;20145;-86
2022/03/27 06:40:24;;;;;;;35.33;15.70;;;12.10;99.90;;;;;;6338797;22;20153;-85
2022/03/27 06:42:50;;;;;;;26.00;15.57;;;12.20;99.90;;;;;;6338588;22;20232;-85
2022/03/27 06:45:16;;;;;;;29.07;15.00;;;12.00;99.90;;;;;;6338877;22;20159;-85
2022/03/27 06:47:44;;;;;;;26.37;15.73;;;12.10;99.90;;;;;;6338123;22;20149;-86
2022/03/27 06:50:11;;;;;;;25.80;15.57;;;12.00;99.90;;;;;;6338726;22;20174;-86
2022/03/27 06:52:37;;;;;;;25.53;14.50;;;12.10;99.90;;;;;;6339318;22;20170;-86
2022/03/27 06:55:05;;;;;;;28.00;16.33;;;12.10;99.90;;;;;;6338757;22;20150;-86
2022/03/27 06:57:30;;;;;;;27.77;16.57;;;12.00;99.90;;;;;;6338369;22;20224;-85
2022/03/27 07:05:24;;;;;;;28.20;16.27;;;12.30;99.90;;;;;;6338970;22;20504;-85
2022/03/27 07:07:50;;;;;;;30.37;17.47;;;12.40;99.90;;;;;;6336793;22;20147;-86
2022/03/27 07:10:16;;;;;;;30.43;16.43;;;12.40;99.90;;;;;;6337350;22;20165;-86
2022/03/27 07:12:43;;;;;;;32.67;17.93;;;12.30;99.90;;;;;;6337391;22;20379;-86
2022/03/27 07:15:09;;;;;;;32.70;18.17;;;12.10;99.90;;;;;;6338225;22;20142;-86
2022/03/27 07:17:48;;;;;;;37.40;18.17;;;12.10;99.90;;;;;;6337876;22;20220;-85
2022/03/27 07:20:18;;;;;;;33.63;18.13;;;12.20;99.90;;;;;;6337869;22;20143;-86
2022/03/27 07:22:44;;;;;;;33.03;18.30;;;12.10;99.90;;;;;;6338340;22;20613;-86
2022/03/27 07:25:10;;;;;;;38.47;19.37;;;12.20;99.90;;;;;;6337616;22;20466;-86
2022/03/27 07:27:37;;;;;;;40.97;21.97;;;12.10;99.90;;;;;;6338367;22;20185;-86
2022/03/27 07:30:05;;;;;;;42.80;20.77;;;12.20;99.90;;;;;;6338968;22;20159;-86
2022/03/27 07:32:31;;;;;;;43.57;22.40;;;12.10;99.90;;;;;;6337569;22;20594;-86
2022/03/27 07:34:57;;;;;;;45.10;22.77;;;12.40;99.90;;;;;;6337839;22;20186;-86
2022/03/27 07:37:24;;;;;;;46.27;23.80;;;12.40;99.90;;;;;;6339787;22;20193;-86
2022/03/27 07:39:49;;;;;;;48.67;23.00;;;12.50;99.90;;;;;;6337626;22;20208;-86
2022/03/27 07:42:15;;;;;;;41.50;21.53;;;12.60;99.90;;;;;;6338477;22;20148;-86
2022/03/27 07:44:41;;;;;;;40.53;22.13;;;12.60;99.90;;;;;;6337494;22;20192;-86
2022/03/27 07:47:07;;;;;;;42.73;22.73;;;12.60;99.90;;;;;;6339576;22;20144;-85
2022/03/27 07:49:32;;;;;;;46.17;23.87;;;12.50;99.90;;;;;;6337539;22;20168;-85
2022/03/27 07:52:00;;;;;;;42.97;23.40;;;12.50;99.90;;;;;;6338303;22;20229;-85
2022/03/27 07:54:26;;;;;;;43.60;23.70;;;12.60;99.90;;;;;;6336851;22;20602;-85
2022/03/27 07:56:52;;;;;;;47.73;24.57;;;12.50;99.90;;;;;;6339622;22;20156;-84
2022/03/27 07:59:18;;;;;;;42.20;22.50;;;12.70;99.90;;;;;;6338485;22;20455;-86
2022/03/27 08:01:44;;;;;;;42.80;22.37;;;12.70;99.90;;;;;;6337542;22;20155;-85
2022/03/27 08:04:10;;;;;;;47.07;23.57;;;12.80;99.90;;;;;;6337861;22;20223;-85
2022/03/27 08:06:36;;;;;;;49.87;24.07;;;12.90;99.90;;;;;;6338978;22;20137;-85
2022/03/27 08:09:04;;;;;;;47.93;25.90;;;12.90;99.90;;;;;;6338830;22;20158;-85
2022/03/27 08:11:29;;;;;;;48.63;25.13;;;12.90;99.90;;;;;;6337417;22;20158;-85
2022/03/27 08:13:56;;;;;;;45.43;25.97;;;13.00;99.90;;;;;;6338864;22;20233;-84
2022/03/27 08:16:22;;;;;;;49.03;25.47;;;13.00;99.90;;;;;;6334601;22;20151;-84
2022/03/27 08:18:48;;;;;;;46.07;25.90;;;12.90;99.90;;;;;;6337737;22;20155;-85
2022/03/27 08:21:14;;;;;;;48.67;25.80;;;13.00;99.90;;;;;;6336959;22;20160;-84
2022/03/27 08:23:40;;;;;;;49.93;25.53;;;13.10;99.90;;;;;;6338735;22;20173;-85
2022/03/27 08:28:49;;;;;;;38.50;22.57;;;13.10;99.90;;;;;;6339437;22;20178;-84
2022/03/27 08:31:15;;;;;;;41.83;22.83;;;13.10;99.90;;;;;;6336816;22;20148;-84
2022/03/27 08:33:41;;;;;;;41.37;23.07;;;12.90;99.90;;;;;;6337050;22;20150;-84
2022/03/27 08:36:06;;;;;;;44.33;24.97;;;12.90;99.90;;;;;;6338753;22;20634;-85
2022/03/27 08:38:32;;;;;;;41.03;23.63;;;13.00;99.90;;;;;;6337662;22;20162;-92
2022/03/27 08:41:01;;;;;;;47.13;24.50;;;13.00;99.90;;;;;;6333558;22;20163;-91
2022/03/27 08:43:31;;;;;;;46.57;24.40;;;13.10;99.90;;;;;;6339316;22;20170;-96
2022/03/27 08:45:58;;;;;;;40.27;23.40;;;13.10;99.90;;;;;;6338973;22;20498;-95
2022/03/27 08:48:24;;;;;;;38.90;22.63;;;13.10;99.90;;;;;;6339232;22;20149;-92
2022/03/27 08:51:25;;;;;;;38.63;23.13;;;13.30;99.90;;;;;;6341225;22;20235;-93
2022/03/27 08:54:05;;;;;;;41.67;23.40;;;13.20;99.90;;;;;;6339043;22;20530;-96
2022/03/27 08:56:32;;;;;;;43.83;24.47;;;13.40;99.90;;;;;;6338072;22;20149;-95
2022/03/27 08:59:01;;;;;;;40.93;23.60;;;13.60;99.90;;;;;;6340288;22;20148;-95
2022/03/27 09:01:28;;;;;;;48.90;26.87;;;13.60;99.90;;;;;;6337540;22;20155;-95
2022/03/27 09:03:53;;;;;;;45.60;25.47;;;13.50;99.90;;;;;;6337527;22;20626;-93
2022/03/27 09:06:21;;;;;;;43.50;23.27;;;13.30;99.90;;;;;;6338350;22;20168;-95
2022/03/27 09:08:50;;;;;;;41.67;24.47;;;13.40;99.90;;;;;;6337673;22;20163;-96
2022/03/27 09:11:18;;;;;;;46.60;26.80;;;13.50;99.90;;;;;;6334193;22;20156;-94
2022/03/27 09:13:50;;;;;;;46.33;24.17;;;13.70;99.90;;;;;;6335566;22;20467;-95
2022/03/27 09:16:16;;;;;;;44.43;24.27;;;13.50;99.90;;;;;;6336482;22;20144;-94
2022/03/27 09:18:53;;;;;;;45.83;24.97;;;13.40;99.90;;;;;;6338399;22;20607;-94
2022/03/27 09:21:20;;;;;;;48.50;26.27;;;13.50;99.90;;;;;;6338818;22;20144;-93
2022/03/27 09:23:55;;;;;;;45.30;25.90;;;13.50;99.90;;;;;;6338395;22;20264;-94
2022/03/27 09:26:21;;;;;;;47.70;27.90;;;13.50;99.90;;;;;;6337584;22;20160;-94
2022/03/27 09:28:49;;;;;;;51.07;27.43;;;13.70;99.90;;;;;;6338077;22;20245;-93
2022/03/27 09:31:18;;;;;;;45.77;28.03;;;13.70;99.90;;;;;;6337915;22;20638;-93
2022/03/27 09:33:48;;;;;;;50.10;27.27;;;13.50;99.90;;;;;;6335521;22;20291;-92
2022/03/27 09:36:15;;;;;;;51.07;29.40;;;13.60;99.90;;;;;;6336439;22;20234;-89
2022/03/27 09:38:41;;;;;;;55.33;29.27;;;13.90;99.90;;;;;;6339083;22;20168;-95
2022/03/27 09:41:27;;;;;;;61.30;32.97;;;13.80;99.90;;;;;;6338241;22;20145;-95
2022/03/27 09:44:01;;;;;;;59.97;30.67;;;13.80;99.90;;;;;;6336693;22;20299;-95
2022/03/27 09:46:27;;;;;;;58.17;29.63;;;14.10;99.90;;;;;;6336581;22;20152;-94
2022/03/27 09:48:56;;;;;;;47.33;27.67;;;13.90;99.90;;;;;;6336679;22;20163;-94
2022/03/27 09:51:22;;;;;;;48.50;27.77;;;14.20;99.90;;;;;;6336792;22;20477;-91
2022/03/27 09:53:56;;;;;;;49.53;28.77;;;14.40;99.90;;;;;;6337010;22;20172;-96
2022/03/27 09:56:29;;;;;;;54.07;29.67;;;14.20;99.90;;;;;;6339234;22;20223;-93
2022/03/27 09:58:54;;;;;;;59.63;32.57;;;14.20;99.90;;;;;;6340790;22;20199;-95
2022/03/27 10:01:22;;;;;;;58.27;31.87;;;14.30;99.90;;;;;;6339880;22;20578;-94
2022/03/27 10:04:03;;;;;;;54.47;30.30;;;14.40;99.90;;;;;;6346444;22;20185;-94
2022/03/27 10:06:40;;;;;;;47.60;29.30;;;14.50;99.90;;;;;;6345046;22;20679;-92
2022/03/27 10:09:11;;;;;;;50.40;29.87;;;14.50;99.90;;;;;;6346516;22;20157;-93
2022/03/27 10:11:38;;;;;;;49.37;28.33;;;14.40;99.90;;;;;;6341577;22;20157;-96
2022/03/27 10:14:06;;;;;;;53.77;28.37;;;14.50;99.90;;;;;;6341207;22;20155;-96
2022/03/27 10:16:42;;;;;;;53.17;30.17;;;14.40;99.90;;;;;;6339302;22;20144;-93
2022/03/27 10:19:33;;;;;;;57.83;32.33;;;14.50;99.90;;;;;;6340840;22;20217;-93
2022/03/27 10:22:01;;;;;;;55.90;30.93;;;14.40;99.90;;;;;;6338626;22;20141;-94
2022/03/27 10:24:32;;;;;;;51.53;29.60;;;14.50;99.90;;;;;;6338525;22;20192;-94
2022/03/27 10:27:02;;;;;;;53.83;29.33;;;14.40;99.90;;;;;;6339679;22;20172;-89
2022/03/27 10:29:29;;;;;;;51.47;27.97;;;14.60;99.90;;;;;;6340982;22;20201;-93
2022/03/27 10:32:04;;;;;;;43.20;24.83;;;14.60;99.90;;;;;;6340132;22;20152;-92
2022/03/27 10:34:33;;;;;;;44.67;24.93;;;14.60;99.90;;;;;;6341533;22;20147;-90
2022/03/27 10:37:03;;;;;;;42.83;24.60;;;14.80;99.90;;;;;;6341811;22;20145;-91
2022/03/27 10:40:05;;;;;;;44.87;25.83;;;14.90;99.90;;;;;;6350999;22;20149;-96
2022/03/27 10:42:54;;;;;;;46.43;26.20;;;14.90;99.90;;;;;;6364037;22;20139;-91
2022/03/27 10:45:21;;;;;;;41.20;25.37;;;15.10;99.90;;;;;;6367403;22;20197;-87
2022/03/27 10:48:10;;;;;;;47.00;26.60;;;15.00;99.90;;;;;;6364228;22;20200;-87
2022/03/27 10:50:58;;;;;;;52.40;27.43;;;14.90;99.90;;;;;;6360452;22;20193;-96
2022/03/27 10:53:32;;;;;;;47.13;26.50;;;15.10;99.90;;;;;;6355690;22;20208;-92
2022/03/27 10:55:58;;;;;;;44.90;26.03;;;14.90;99.90;;;;;;6354143;22;20144;-93
2022/03/27 10:58:38;;;;;;;45.00;25.07;;;14.90;99.90;;;;;;6351335;22;20157;-96
2022/03/27 11:01:24;;;;;;;43.07;25.03;;;14.90;99.90;;;;;;6350474;22;20146;-96
2022/03/27 11:03:52;;;;;;;45.87;26.67;;;15.10;99.90;;;;;;6333726;22;20185;-96
2022/03/27 11:06:28;;;;;;;44.10;24.23;;;15.20;99.90;;;;;;6351278;22;20169;-95
2022/03/27 11:09:00;;;;;;;40.37;22.60;;;15.40;99.90;;;;;;6350124;22;20156;-95
2022/03/27 11:11:37;;;;;;;41.70;24.20;;;15.50;99.60;;;;;;6352670;22;20141;-96
2022/03/27 11:14:04;;;;;;;37.20;22.27;;;15.60;99.00;;;;;;6350973;22;20161;-95
2022/03/27 11:16:33;;;;;;;43.23;23.97;;;15.60;99.30;;;;;;6356156;22;20133;-96
2022/03/27 11:18:59;;;;;;;41.37;23.67;;;15.50;99.50;;;;;;6356658;22;20136;-96
2022/03/27 11:21:28;;;;;;;40.90;24.03;;;15.60;99.70;;;;;;6356951;22;20150;-93
2022/03/27 11:24:19;;;;;;;38.93;22.50;;;15.60;99.30;;;;;;6356838;22;20211;-95
2022/03/27 11:26:50;;;;;;;44.17;23.43;;;15.40;99.50;;;;;;6342938;22;20156;-96
2022/03/27 11:29:22;;;;;;;45.13;24.57;;;15.60;99.20;;;;;;6355443;22;20156;-96
2022/03/27 11:32:09;;;;;;;37.90;23.60;;;15.60;99.50;;;;;;6363052;22;20129;-87
2022/03/27 11:34:37;;;;;;;38.97;22.50;;;15.60;99.30;;;;;;6366896;22;20136;-92
2022/03/27 11:37:27;;;;;;;39.53;23.57;;;15.70;99.10;;;;;;6337324;22;20130;-89
2022/03/27 11:39:54;;;;;;;43.93;23.77;;;15.80;98.70;;;;;;6359479;22;20180;-94
2022/03/27 11:42:34;;;;;;;41.70;24.17;;;15.80;98.50;;;;;;6356738;22;20145;-96
2022/03/27 11:45:21;;;;;;;45.77;25.07;;;15.80;98.90;;;;;;6330125;22;20191;-96
2022/03/27 11:47:49;;;;;;;47.07;26.73;;;15.70;99.20;;;;;;6355436;22;20216;-91
2022/03/27 11:50:34;;;;;;;52.20;28.40;;;15.80;98.90;;;;;;6357475;22;20144;-96
2022/03/27 11:53:03;;;;;;;53.40;28.13;;;15.90;98.50;;;;;;6355351;22;20153;-96
2022/03/27 11:55:33;;;;;;;52.67;29.70;;;16.00;98.40;;;;;;6330531;22;20153;-96
2022/03/27 11:58:03;;;;;;;56.40;28.30;;;16.10;98.40;;;;;;6356420;22;20141;-94
2022/03/27 12:00:35;;;;;;;44.57;24.90;;;15.90;98.80;;;;;;6355852;22;20145;-96
2022/03/27 12:03:03;;;;;;;46.27;26.90;;;16.00;98.60;;;;;;6357747;22;20161;-95
2022/03/27 12:05:37;;;;;;;48.23;28.23;;;16.10;98.40;;;;;;6359380;22;20173;-93
2022/03/27 12:08:06;;;;;;;44.90;26.07;;;16.10;98.10;;;;;;6358297;22;20149;-91
2022/03/27 12:10:49;;;;;;;47.93;24.73;;;16.30;97.80;;;;;;6331317;22;20171;-92
2022/03/27 12:13:15;;;;;;;50.00;26.03;;;16.40;97.30;;;;;;6357520;22;20169;-95
2022/03/27 12:15:51;;;;;;;43.93;24.43;;;16.40;97.40;;;;;;6357560;22;20209;-90
2022/03/27 12:18:40;;;;;;;51.07;29.67;;;16.50;97.20;;;;;;6356588;22;20125;-92
2022/03/27 12:21:10;;;;;;;53.73;28.97;;;16.70;96.40;;;;;;6356275;22;20151;-90
2022/03/27 12:23:41;;;;;;;51.37;28.47;;;16.70;96.30;;;;;;6330198;22;20177;-95
2022/03/27 12:32:16;;;;;;;51.90;27.10;;;16.80;96.70;;;;;;6356335;22;20143;-93
2022/03/27 12:34:47;;;;;;;52.87;27.40;;;16.90;96.10;;;;;;6355607;22;20141;-96
2022/03/27 12:37:17;;;;;;;43.03;24.80;;;16.70;96.40;;;;;;6357432;22;20205;-91
2022/03/27 12:39:52;;;;;;;44.40;26.13;;;16.80;96.50;;;;;;6360537;22;20162;-88
2022/03/27 12:42:36;;;;;;;45.83;25.60;;;17.00;95.90;;;;;;6360061;22;20158;-94
2022/03/27 12:45:23;;;;;;;48.77;26.20;;;17.00;96.00;;;;;;6358086;22;20158;-87
2022/03/27 12:47:51;;;;;;;46.70;25.77;;;17.10;95.90;;;;;;6357359;22;20166;-95
2022/03/27 12:50:26;;;;;;;49.53;25.97;;;17.20;95.80;;;;;;6354796;22;20155;-94